Aviation Digital Data Service (ADDS)

Output produced by METARs form (1205 UTC 24 February 2018)
found at http://www.aviationweather.gov/adds/metars/
 
TAF MSLP 240925Z 2412/2512 06007KT 9999 CAVOK TX34/2417Z TN20/2511Z 
     FM241700 19010G20KT 9999 FEW040CB BKN060 
     TEMPO 2501/2506 VRB02KT RA 
     FM250600 9999 SCT060
       
TAF MSSS 240925Z 2412/2512 36007KT CAVOK TX32/2419Z TN20/2512Z 
     FM241700 18008KT 9999 FEW040CB SCT043 
     TEMPO 2500/2506 17002KT 8000